sensor_id;sensor_type;location;lat;lon;timestamp;P1;durP1;ratioP1;P2;durP2;ratioP2
18046;SDS011;9148;51.454;13.862;2022-09-13T00:01:45;1.43;;;1.07;;
18046;SDS011;9148;51.454;13.862;2022-09-13T00:04:11;1.50;;;1.30;;
18046;SDS011;9148;51.454;13.862;2022-09-13T00:06:37;1.17;;;0.87;;
18046;SDS011;9148;51.454;13.862;2022-09-13T00:09:02;1.40;;;1.30;;
18046;SDS011;9148;51.454;13.862;2022-09-13T00:11:29;1.67;;;1.57;;
18046;SDS011;9148;51.454;13.862;2022-09-13T00:13:55;1.40;;;1.30;;
18046;SDS011;9148;51.454;13.862;2022-09-13T00:16:23;1.40;;;1.30;;
18046;SDS011;9148;51.454;13.862;2022-09-13T00:18:52;2.60;;;1.70;;
18046;SDS011;9148;51.454;13.862;2022-09-13T00:21:18;1.40;;;1.30;;
18046;SDS011;9148;51.454;13.862;2022-09-13T00:23:46;2.20;;;1.50;;
18046;SDS011;9148;51.454;13.862;2022-09-13T00:26:17;1.50;;;0.87;;
18046;SDS011;9148;51.454;13.862;2022-09-13T00:28:49;2.87;;;1.20;;
18046;SDS011;9148;51.454;13.862;2022-09-13T00:31:17;1.20;;;1.10;;
18046;SDS011;9148;51.454;13.862;2022-09-13T00:33:43;1.67;;;1.57;;
18046;SDS011;9148;51.454;13.862;2022-09-13T00:36:12;1.37;;;1.23;;
18046;SDS011;9148;51.454;13.862;2022-09-13T00:38:40;1.37;;;1.27;;
18046;SDS011;9148;51.454;13.862;2022-09-13T00:41:08;1.37;;;1.20;;
18046;SDS011;9148;51.454;13.862;2022-09-13T00:43:41;1.33;;;1.23;;
18046;SDS011;9148;51.454;13.862;2022-09-13T00:49:14;1.70;;;1.10;;
18046;SDS011;9148;51.454;13.862;2022-09-13T00:51:47;1.87;;;1.67;;
18046;SDS011;9148;51.454;13.862;2022-09-13T00:54:18;1.30;;;1.20;;
18046;SDS011;9148;51.454;13.862;2022-09-13T00:56:49;1.80;;;1.13;;
18046;SDS011;9148;51.454;13.862;2022-09-13T00:59:22;0.97;;;0.80;;
18046;SDS011;9148;51.454;13.862;2022-09-13T01:01:56;2.13;;;1.20;;
18046;SDS011;9148;51.454;13.862;2022-09-13T01:04:25;1.37;;;1.27;;
18046;SDS011;9148;51.454;13.862;2022-09-13T01:06:53;1.27;;;0.80;;
18046;SDS011;9148;51.454;13.862;2022-09-13T01:09:28;1.57;;;1.47;;
18046;SDS011;9148;51.454;13.862;2022-09-13T01:12:00;2.13;;;1.53;;
18046;SDS011;9148;51.454;13.862;2022-09-13T01:14:51;2.53;;;1.43;;
18046;SDS011;9148;51.454;13.862;2022-09-13T01:17:17;1.50;;;1.20;;
18046;SDS011;9148;51.454;13.862;2022-09-13T01:19:43;2.60;;;1.33;;
18046;SDS011;9148;51.454;13.862;2022-09-13T01:22:15;1.97;;;1.00;;
18046;SDS011;9148;51.454;13.862;2022-09-13T01:28:36;1.50;;;1.37;;
18046;SDS011;9148;51.454;13.862;2022-09-13T01:40:31;1.80;;;1.20;;
18046;SDS011;9148;51.454;13.862;2022-09-13T01:43:30;1.07;;;1.03;;
18046;SDS011;9148;51.454;13.862;2022-09-13T01:48:50;2.30;;;1.50;;
18046;SDS011;9148;51.454;13.862;2022-09-13T01:51:27;1.53;;;1.43;;
18046;SDS011;9148;51.454;13.862;2022-09-13T02:00:40;1.33;;;1.23;;
18046;SDS011;9148;51.454;13.862;2022-09-13T02:03:32;1.30;;;1.20;;
18046;SDS011;9148;51.454;13.862;2022-09-13T02:06:05;1.23;;;1.17;;
18046;SDS011;9148;51.454;13.862;2022-09-13T02:08:37;2.90;;;1.47;;
18046;SDS011;9148;51.454;13.862;2022-09-13T02:11:15;1.53;;;1.40;;
18046;SDS011;9148;51.454;13.862;2022-09-13T02:13:55;1.80;;;0.97;;
18046;SDS011;9148;51.454;13.862;2022-09-13T02:16:51;1.23;;;1.00;;
18046;SDS011;9148;51.454;13.862;2022-09-13T02:19:46;1.87;;;1.40;;
18046;SDS011;9148;51.454;13.862;2022-09-13T02:22:17;1.07;;;0.97;;
18046;SDS011;9148;51.454;13.862;2022-09-13T02:24:51;1.07;;;0.97;;
18046;SDS011;9148;51.454;13.862;2022-09-13T02:27:23;1.47;;;1.37;;
18046;SDS011;9148;51.454;13.862;2022-09-13T02:29:54;1.30;;;1.20;;
18046;SDS011;9148;51.454;13.862;2022-09-13T02:32:32;1.50;;;1.40;;
18046;SDS011;9148;51.454;13.862;2022-09-13T02:35:09;1.23;;;1.10;;
18046;SDS011;9148;51.454;13.862;2022-09-13T02:37:44;1.07;;;1.07;;
18046;SDS011;9148;51.454;13.862;2022-09-13T02:40:16;2.20;;;2.00;;
18046;SDS011;9148;51.454;13.862;2022-09-13T02:42:51;2.07;;;1.50;;
18046;SDS011;9148;51.454;13.862;2022-09-13T02:45:32;0.93;;;0.80;;
18046;SDS011;9148;51.454;13.862;2022-09-13T02:48:13;1.50;;;1.40;;
18046;SDS011;9148;51.454;13.862;2022-09-13T02:51:00;2.83;;;1.53;;
18046;SDS011;9148;51.454;13.862;2022-09-13T02:53:55;1.27;;;1.07;;
18046;SDS011;9148;51.454;13.862;2022-09-13T02:56:53;0.93;;;0.90;;
18046;SDS011;9148;51.454;13.862;2022-09-13T02:59:34;1.30;;;1.20;;
18046;SDS011;9148;51.454;13.862;2022-09-13T03:02:02;2.13;;;1.50;;
18046;SDS011;9148;51.454;13.862;2022-09-13T03:04:38;1.23;;;1.13;;
18046;SDS011;9148;51.454;13.862;2022-09-13T03:07:05;2.33;;;1.27;;
18046;SDS011;9148;51.454;13.862;2022-09-13T03:09:39;1.00;;;1.00;;
18046;SDS011;9148;51.454;13.862;2022-09-13T03:18:57;1.10;;;1.00;;
18046;SDS011;9148;51.454;13.862;2022-09-13T03:21:37;2.07;;;1.20;;
18046;SDS011;9148;51.454;13.862;2022-09-13T03:24:50;1.30;;;1.10;;
18046;SDS011;9148;51.454;13.862;2022-09-13T03:30:44;1.90;;;1.53;;
18046;SDS011;9148;51.454;13.862;2022-09-13T03:33:27;2.00;;;1.27;;
18046;SDS011;9148;51.454;13.862;2022-09-13T03:41:42;1.70;;;1.60;;
18046;SDS011;9148;51.454;13.862;2022-09-13T03:44:15;2.17;;;1.60;;
18046;SDS011;9148;51.454;13.862;2022-09-13T03:46:46;2.03;;;1.50;;
18046;SDS011;9148;51.454;13.862;2022-09-13T03:49:17;1.83;;;1.20;;
18046;SDS011;9148;51.454;13.862;2022-09-13T03:51:46;1.60;;;1.47;;
18046;SDS011;9148;51.454;13.862;2022-09-13T03:54:18;1.47;;;1.30;;
18046;SDS011;9148;51.454;13.862;2022-09-13T03:57:12;1.20;;;1.10;;
18046;SDS011;9148;51.454;13.862;2022-09-13T03:59:45;1.80;;;1.70;;
18046;SDS011;9148;51.454;13.862;2022-09-13T04:02:13;2.77;;;1.60;;
18046;SDS011;9148;51.454;13.862;2022-09-13T04:04:40;1.00;;;1.00;;
18046;SDS011;9148;51.454;13.862;2022-09-13T04:07:08;2.00;;;1.47;;
18046;SDS011;9148;51.454;13.862;2022-09-13T04:09:40;1.70;;;1.60;;
18046;SDS011;9148;51.454;13.862;2022-09-13T04:12:06;1.63;;;1.30;;
18046;SDS011;9148;51.454;13.862;2022-09-13T04:14:34;2.80;;;1.40;;
18046;SDS011;9148;51.454;13.862;2022-09-13T04:17:00;1.60;;;1.27;;
18046;SDS011;9148;51.454;13.862;2022-09-13T04:19:25;1.53;;;1.43;;
18046;SDS011;9148;51.454;13.862;2022-09-13T04:21:52;1.63;;;1.03;;
18046;SDS011;9148;51.454;13.862;2022-09-13T04:24:19;1.70;;;1.60;;
18046;SDS011;9148;51.454;13.862;2022-09-13T04:26:51;1.17;;;1.07;;
18046;SDS011;9148;51.454;13.862;2022-09-13T04:29:18;1.37;;;1.30;;
18046;SDS011;9148;51.454;13.862;2022-09-13T04:31:48;1.77;;;1.67;;
18046;SDS011;9148;51.454;13.862;2022-09-13T04:34:16;1.37;;;1.00;;
18046;SDS011;9148;51.454;13.862;2022-09-13T04:36:42;2.40;;;1.33;;
18046;SDS011;9148;51.454;13.862;2022-09-13T04:39:11;1.40;;;1.30;;
18046;SDS011;9148;51.454;13.862;2022-09-13T04:41:41;1.40;;;1.30;;
18046;SDS011;9148;51.454;13.862;2022-09-13T04:44:08;1.93;;;1.33;;
18046;SDS011;9148;51.454;13.862;2022-09-13T04:46:34;1.77;;;1.53;;
18046;SDS011;9148;51.454;13.862;2022-09-13T04:49:00;2.20;;;1.70;;
18046;SDS011;9148;51.454;13.862;2022-09-13T04:51:25;1.40;;;1.30;;
18046;SDS011;9148;51.454;13.862;2022-09-13T04:53:52;1.57;;;1.47;;
18046;SDS011;9148;51.454;13.862;2022-09-13T04:56:19;1.47;;;1.00;;
18046;SDS011;9148;51.454;13.862;2022-09-13T04:58:47;1.10;;;1.00;;
18046;SDS011;9148;51.454;13.862;2022-09-13T05:01:15;3.43;;;2.33;;
18046;SDS011;9148;51.454;13.862;2022-09-13T05:03:41;1.40;;;1.30;;
18046;SDS011;9148;51.454;13.862;2022-09-13T05:06:08;1.77;;;1.67;;
18046;SDS011;9148;51.454;13.862;2022-09-13T05:08:39;1.50;;;1.10;;
18046;SDS011;9148;51.454;13.862;2022-09-13T05:11:05;1.60;;;1.30;;
18046;SDS011;9148;51.454;13.862;2022-09-13T05:13:32;1.60;;;1.50;;
18046;SDS011;9148;51.454;13.862;2022-09-13T05:15:59;1.67;;;1.57;;
18046;SDS011;9148;51.454;13.862;2022-09-13T05:18:30;2.13;;;1.57;;
18046;SDS011;9148;51.454;13.862;2022-09-13T05:20:59;2.57;;;1.37;;
18046;SDS011;9148;51.454;13.862;2022-09-13T05:23:27;1.57;;;1.40;;
18046;SDS011;9148;51.454;13.862;2022-09-13T05:26:03;2.50;;;1.60;;
18046;SDS011;9148;51.454;13.862;2022-09-13T05:28:31;1.87;;;1.77;;
18046;SDS011;9148;51.454;13.862;2022-09-13T05:31:04;3.57;;;2.13;;
18046;SDS011;9148;51.454;13.862;2022-09-13T05:33:33;2.57;;;1.63;;
18046;SDS011;9148;51.454;13.862;2022-09-13T05:36:01;5.53;;;2.13;;
18046;SDS011;9148;51.454;13.862;2022-09-13T05:38:28;2.03;;;1.83;;
18046;SDS011;9148;51.454;13.862;2022-09-13T05:40:54;2.23;;;1.80;;
18046;SDS011;9148;51.454;13.862;2022-09-13T05:43:22;2.00;;;1.90;;
18046;SDS011;9148;51.454;13.862;2022-09-13T05:45:49;6.53;;;1.57;;
18046;SDS011;9148;51.454;13.862;2022-09-13T05:48:15;2.10;;;1.90;;
18046;SDS011;9148;51.454;13.862;2022-09-13T05:50:41;2.77;;;2.07;;
18046;SDS011;9148;51.454;13.862;2022-09-13T05:53:07;1.80;;;1.70;;
18046;SDS011;9148;51.454;13.862;2022-09-13T05:55:33;1.90;;;1.80;;
18046;SDS011;9148;51.454;13.862;2022-09-13T05:58:02;4.67;;;2.57;;
18046;SDS011;9148;51.454;13.862;2022-09-13T06:00:28;3.50;;;2.47;;
18046;SDS011;9148;51.454;13.862;2022-09-13T06:02:55;2.27;;;2.07;;
18046;SDS011;9148;51.454;13.862;2022-09-13T06:05:21;2.47;;;2.20;;
18046;SDS011;9148;51.454;13.862;2022-09-13T06:07:47;6.73;;;2.53;;
18046;SDS011;9148;51.454;13.862;2022-09-13T06:10:13;2.50;;;2.07;;
18046;SDS011;9148;51.454;13.862;2022-09-13T06:12:38;2.07;;;1.60;;
18046;SDS011;9148;51.454;13.862;2022-09-13T06:15:04;1.90;;;1.73;;
18046;SDS011;9148;51.454;13.862;2022-09-13T06:17:31;3.23;;;2.53;;
18046;SDS011;9148;51.454;13.862;2022-09-13T06:19:56;2.63;;;1.80;;
18046;SDS011;9148;51.454;13.862;2022-09-13T06:22:22;2.43;;;1.57;;
18046;SDS011;9148;51.454;13.862;2022-09-13T06:24:48;2.00;;;1.63;;
18046;SDS011;9148;51.454;13.862;2022-09-13T06:27:13;3.33;;;2.00;;
18046;SDS011;9148;51.454;13.862;2022-09-13T06:29:39;1.57;;;1.20;;
18046;SDS011;9148;51.454;13.862;2022-09-13T06:32:05;3.03;;;2.27;;
18046;SDS011;9148;51.454;13.862;2022-09-13T06:34:31;3.43;;;2.03;;
18046;SDS011;9148;51.454;13.862;2022-09-13T06:36:56;3.23;;;2.10;;
18046;SDS011;9148;51.454;13.862;2022-09-13T06:39:22;2.37;;;1.67;;
18046;SDS011;9148;51.454;13.862;2022-09-13T06:41:48;1.77;;;1.67;;
18046;SDS011;9148;51.454;13.862;2022-09-13T06:44:13;2.03;;;1.87;;
18046;SDS011;9148;51.454;13.862;2022-09-13T06:46:39;1.42;;;1.30;;
18046;SDS011;9148;51.454;13.862;2022-09-13T06:49:05;3.20;;;1.67;;
18046;SDS011;9148;51.454;13.862;2022-09-13T06:51:33;2.10;;;1.70;;
18046;SDS011;9148;51.454;13.862;2022-09-13T06:53:59;2.10;;;1.60;;
18046;SDS011;9148;51.454;13.862;2022-09-13T06:56:29;4.35;;;1.67;;
18046;SDS011;9148;51.454;13.862;2022-09-13T06:58:57;2.17;;;1.98;;
18046;SDS011;9148;51.454;13.862;2022-09-13T07:01:35;2.53;;;2.33;;
18046;SDS011;9148;51.454;13.862;2022-09-13T07:04:11;3.00;;;1.95;;
18046;SDS011;9148;51.454;13.862;2022-09-13T07:06:47;1.98;;;1.85;;
18046;SDS011;9148;51.454;13.862;2022-09-13T07:09:14;1.60;;;1.50;;
18046;SDS011;9148;51.454;13.862;2022-09-13T07:11:45;2.13;;;1.88;;
18046;SDS011;9148;51.454;13.862;2022-09-13T07:14:15;2.08;;;1.38;;
18046;SDS011;9148;51.454;13.862;2022-09-13T07:16:43;2.17;;;1.70;;
18046;SDS011;9148;51.454;13.862;2022-09-13T07:19:14;2.95;;;2.40;;
18046;SDS011;9148;51.454;13.862;2022-09-13T07:21:47;1.90;;;1.70;;
18046;SDS011;9148;51.454;13.862;2022-09-13T07:24:14;2.30;;;2.10;;
18046;SDS011;9148;51.454;13.862;2022-09-13T07:26:41;3.15;;;1.88;;
18046;SDS011;9148;51.454;13.862;2022-09-13T07:29:07;2.45;;;1.77;;
18046;SDS011;9148;51.454;13.862;2022-09-13T07:31:39;1.70;;;1.42;;
18046;SDS011;9148;51.454;13.862;2022-09-13T07:34:11;2.00;;;1.80;;
18046;SDS011;9148;51.454;13.862;2022-09-13T07:36:39;2.00;;;1.80;;
18046;SDS011;9148;51.454;13.862;2022-09-13T07:39:05;2.35;;;1.90;;
18046;SDS011;9148;51.454;13.862;2022-09-13T07:41:32;3.13;;;2.15;;
18046;SDS011;9148;51.454;13.862;2022-09-13T07:43:58;2.55;;;1.98;;
18046;SDS011;9148;51.454;13.862;2022-09-13T07:46:26;2.45;;;1.95;;
18046;SDS011;9148;51.454;13.862;2022-09-13T07:48:56;1.58;;;1.48;;
18046;SDS011;9148;51.454;13.862;2022-09-13T07:51:24;1.85;;;1.73;;
18046;SDS011;9148;51.454;13.862;2022-09-13T07:53:59;2.53;;;1.85;;
18046;SDS011;9148;51.454;13.862;2022-09-13T07:56:33;4.07;;;1.85;;
18046;SDS011;9148;51.454;13.862;2022-09-13T07:59:02;1.88;;;1.45;;
18046;SDS011;9148;51.454;13.862;2022-09-13T08:04:08;1.80;;;1.50;;
18046;SDS011;9148;51.454;13.862;2022-09-13T08:06:37;2.28;;;1.98;;
18046;SDS011;9148;51.454;13.862;2022-09-13T08:09:05;3.78;;;2.03;;
18046;SDS011;9148;51.454;13.862;2022-09-13T08:11:33;2.30;;;2.10;;
18046;SDS011;9148;51.454;13.862;2022-09-13T08:14:11;2.75;;;2.03;;
18046;SDS011;9148;51.454;13.862;2022-09-13T08:16:39;2.65;;;2.45;;
18046;SDS011;9148;51.454;13.862;2022-09-13T08:19:05;3.40;;;2.55;;
18046;SDS011;9148;51.454;13.862;2022-09-13T08:21:35;3.65;;;2.58;;
18046;SDS011;9148;51.454;13.862;2022-09-13T08:24:03;3.00;;;2.80;;
18046;SDS011;9148;51.454;13.862;2022-09-13T08:26:31;3.78;;;2.88;;
18046;SDS011;9148;51.454;13.862;2022-09-13T08:29:00;1.92;;;1.67;;
18046;SDS011;9148;51.454;13.862;2022-09-13T08:31:28;3.28;;;2.90;;
18046;SDS011;9148;51.454;13.862;2022-09-13T08:33:56;4.20;;;2.90;;
18046;SDS011;9148;51.454;13.862;2022-09-13T08:36:22;4.30;;;2.95;;
18046;SDS011;9148;51.454;13.862;2022-09-13T08:38:50;3.15;;;2.08;;
18046;SDS011;9148;51.454;13.862;2022-09-13T08:46:56;3.03;;;2.72;;
18046;SDS011;9148;51.454;13.862;2022-09-13T08:49:36;2.90;;;2.60;;
18046;SDS011;9148;51.454;13.862;2022-09-13T08:52:22;7.10;;;3.17;;
18046;SDS011;9148;51.454;13.862;2022-09-13T08:54:55;4.45;;;2.65;;
18046;SDS011;9148;51.454;13.862;2022-09-13T08:57:27;3.88;;;2.28;;
18046;SDS011;9148;51.454;13.862;2022-09-13T09:05:40;3.45;;;2.42;;
18046;SDS011;9148;51.454;13.862;2022-09-13T09:10:55;2.45;;;2.00;;
18046;SDS011;9148;51.454;13.862;2022-09-13T09:13:28;2.33;;;2.13;;
18046;SDS011;9148;51.454;13.862;2022-09-13T09:19:19;2.03;;;1.77;;
18046;SDS011;9148;51.454;13.862;2022-09-13T09:21:54;1.90;;;1.65;;
18046;SDS011;9148;51.454;13.862;2022-09-13T09:24:22;5.38;;;2.65;;
18046;SDS011;9148;51.454;13.862;2022-09-13T09:26:49;3.40;;;1.85;;
18046;SDS011;9148;51.454;13.862;2022-09-13T09:29:22;1.65;;;1.40;;
18046;SDS011;9148;51.454;13.862;2022-09-13T09:37:36;2.33;;;1.92;;
18046;SDS011;9148;51.454;13.862;2022-09-13T09:40:03;2.70;;;2.17;;
18046;SDS011;9148;51.454;13.862;2022-09-13T09:42:41;3.85;;;2.22;;
18046;SDS011;9148;51.454;13.862;2022-09-13T09:45:23;2.03;;;1.52;;
18046;SDS011;9148;51.454;13.862;2022-09-13T09:47:54;3.70;;;1.75;;
18046;SDS011;9148;51.454;13.862;2022-09-13T09:50:38;2.70;;;2.33;;
18046;SDS011;9148;51.454;13.862;2022-09-13T09:53:26;1.92;;;1.73;;
18046;SDS011;9148;51.454;13.862;2022-09-13T09:56:00;1.95;;;1.70;;
18046;SDS011;9148;51.454;13.862;2022-09-13T09:58:49;4.15;;;2.08;;
18046;SDS011;9148;51.454;13.862;2022-09-13T10:01:21;1.92;;;1.25;;
18046;SDS011;9148;51.454;13.862;2022-09-13T10:06:40;1.42;;;1.33;;
18046;SDS011;9148;51.454;13.862;2022-09-13T10:09:14;1.90;;;1.70;;
18046;SDS011;9148;51.454;13.862;2022-09-13T10:22:43;1.50;;;1.23;;
18046;SDS011;9148;51.454;13.862;2022-09-13T10:25:12;1.98;;;1.77;;
18046;SDS011;9148;51.454;13.862;2022-09-13T10:27:46;3.10;;;1.85;;
18046;SDS011;9148;51.454;13.862;2022-09-13T10:33:04;2.05;;;1.45;;
18046;SDS011;9148;51.454;13.862;2022-09-13T10:35:32;1.83;;;1.58;;
18046;SDS011;9148;51.454;13.862;2022-09-13T10:37:58;1.80;;;1.25;;
18046;SDS011;9148;51.454;13.862;2022-09-13T10:40:26;1.73;;;1.42;;
18046;SDS011;9148;51.454;13.862;2022-09-13T10:42:55;2.83;;;1.58;;
18046;SDS011;9148;51.454;13.862;2022-09-13T10:45:26;2.13;;;1.70;;
18046;SDS011;9148;51.454;13.862;2022-09-13T10:48:09;2.65;;;1.95;;
18046;SDS011;9148;51.454;13.862;2022-09-13T10:51:01;1.88;;;1.52;;
18046;SDS011;9148;51.454;13.862;2022-09-13T10:53:36;1.30;;;1.20;;
18046;SDS011;9148;51.454;13.862;2022-09-13T10:56:05;4.80;;;1.85;;
18046;SDS011;9148;51.454;13.862;2022-09-13T10:58:45;1.80;;;1.30;;
18046;SDS011;9148;51.454;13.862;2022-09-13T11:04:22;1.40;;;1.30;;
18046;SDS011;9148;51.454;13.862;2022-09-13T11:09:57;2.05;;;1.40;;
18046;SDS011;9148;51.454;13.862;2022-09-13T11:12:45;1.33;;;0.98;;
18046;SDS011;9148;51.454;13.862;2022-09-13T11:16:01;1.55;;;1.27;;
18046;SDS011;9148;51.454;13.862;2022-09-13T11:21:30;2.05;;;1.63;;
18046;SDS011;9148;51.454;13.862;2022-09-13T11:24:17;2.30;;;1.52;;
18046;SDS011;9148;51.454;13.862;2022-09-13T11:27:19;1.85;;;1.58;;
18046;SDS011;9148;51.454;13.862;2022-09-13T11:30:21;2.20;;;1.50;;
18046;SDS011;9148;51.454;13.862;2022-09-13T11:32:59;4.28;;;1.60;;
18046;SDS011;9148;51.454;13.862;2022-09-13T11:35:41;1.10;;;1.00;;
18046;SDS011;9148;51.454;13.862;2022-09-13T11:46:42;1.83;;;1.08;;
18046;SDS011;9148;51.454;13.862;2022-09-13T11:57:37;2.78;;;1.10;;
18046;SDS011;9148;51.454;13.862;2022-09-13T12:00:18;2.15;;;1.25;;
18046;SDS011;9148;51.454;13.862;2022-09-13T12:05:56;2.45;;;1.50;;
18046;SDS011;9148;51.454;13.862;2022-09-13T12:08:28;2.58;;;1.20;;
18046;SDS011;9148;51.454;13.862;2022-09-13T12:11:10;1.50;;;1.08;;
18046;SDS011;9148;51.454;13.862;2022-09-13T12:13:45;1.45;;;1.25;;
18046;SDS011;9148;51.454;13.862;2022-09-13T12:16:21;1.23;;;1.13;;
18046;SDS011;9148;51.454;13.862;2022-09-13T12:18:59;1.40;;;1.20;;
18046;SDS011;9148;51.454;13.862;2022-09-13T12:21:37;3.65;;;1.73;;
18046;SDS011;9148;51.454;13.862;2022-09-13T12:27:04;3.03;;;1.33;;
18046;SDS011;9148;51.454;13.862;2022-09-13T12:29:42;2.25;;;1.55;;
18046;SDS011;9148;51.454;13.862;2022-09-13T12:32:13;0.93;;;0.82;;
18046;SDS011;9148;51.454;13.862;2022-09-13T12:41:02;1.67;;;1.10;;
18046;SDS011;9148;51.454;13.862;2022-09-13T12:52:51;2.03;;;1.48;;
18046;SDS011;9148;51.454;13.862;2022-09-13T13:01:59;2.03;;;1.17;;
18046;SDS011;9148;51.454;13.862;2022-09-13T13:04:43;2.05;;;1.10;;
18046;SDS011;9148;51.454;13.862;2022-09-13T13:07:19;1.55;;;1.25;;
18046;SDS011;9148;51.454;13.862;2022-09-13T13:09:47;1.17;;;0.95;;
18046;SDS011;9148;51.454;13.862;2022-09-13T13:14:56;1.67;;;1.10;;
18046;SDS011;9148;51.454;13.862;2022-09-13T13:17:34;2.05;;;1.13;;
18046;SDS011;9148;51.454;13.862;2022-09-13T13:26:00;5.15;;;1.27;;
18046;SDS011;9148;51.454;13.862;2022-09-13T13:31:08;1.52;;;1.15;;
18046;SDS011;9148;51.454;13.862;2022-09-13T13:33:50;1.33;;;0.95;;
18046;SDS011;9148;51.454;13.862;2022-09-13T13:36:29;1.55;;;1.17;;
18046;SDS011;9148;51.454;13.862;2022-09-13T13:39:50;1.95;;;0.90;;
18046;SDS011;9148;51.454;13.862;2022-09-13T13:49:44;1.23;;;1.13;;
18046;SDS011;9148;51.454;13.862;2022-09-13T14:00:19;1.35;;;0.90;;
18046;SDS011;9148;51.454;13.862;2022-09-13T14:22:19;1.55;;;1.17;;
18046;SDS011;9148;51.454;13.862;2022-09-13T14:24:48;1.33;;;1.02;;
18046;SDS011;9148;51.454;13.862;2022-09-13T14:27:20;1.45;;;0.80;;
18046;SDS011;9148;51.454;13.862;2022-09-13T14:29:59;2.28;;;1.00;;
18046;SDS011;9148;51.454;13.862;2022-09-13T14:32:31;2.17;;;1.55;;
18046;SDS011;9148;51.454;13.862;2022-09-13T14:35:19;1.65;;;1.10;;
18046;SDS011;9148;51.454;13.862;2022-09-13T14:38:09;1.40;;;1.15;;
18046;SDS011;9148;51.454;13.862;2022-09-13T14:40:58;1.98;;;1.00;;
18046;SDS011;9148;51.454;13.862;2022-09-13T14:43:39;0.82;;;0.80;;
18046;SDS011;9148;51.454;13.862;2022-09-13T14:46:06;1.15;;;1.05;;
18046;SDS011;9148;51.454;13.862;2022-09-13T14:49:03;2.50;;;1.00;;
18046;SDS011;9148;51.454;13.862;2022-09-13T14:51:38;1.85;;;1.10;;
18046;SDS011;9148;51.454;13.862;2022-09-13T14:54:14;1.00;;;0.90;;
18046;SDS011;9148;51.454;13.862;2022-09-13T14:57:21;2.88;;;1.02;;
18046;SDS011;9148;51.454;13.862;2022-09-13T14:59:53;2.85;;;1.08;;
18046;SDS011;9148;51.454;13.862;2022-09-13T15:03:00;0.80;;;0.80;;
18046;SDS011;9148;51.454;13.862;2022-09-13T15:05:31;1.90;;;0.90;;
18046;SDS011;9148;51.454;13.862;2022-09-13T15:07:58;1.08;;;0.95;;
18046;SDS011;9148;51.454;13.862;2022-09-13T15:10:25;0.98;;;0.90;;
18046;SDS011;9148;51.454;13.862;2022-09-13T15:15:41;1.27;;;0.98;;
18046;SDS011;9148;51.454;13.862;2022-09-13T15:20:48;1.13;;;0.73;;
18046;SDS011;9148;51.454;13.862;2022-09-13T15:25:53;1.40;;;1.15;;
18046;SDS011;9148;51.454;13.862;2022-09-13T15:31:08;1.75;;;1.23;;
18046;SDS011;9148;51.454;13.862;2022-09-13T15:33:43;1.75;;;1.02;;
18046;SDS011;9148;51.454;13.862;2022-09-13T15:38:55;1.25;;;0.85;;
18046;SDS011;9148;51.454;13.862;2022-09-13T15:41:35;1.25;;;1.15;;
18046;SDS011;9148;51.454;13.862;2022-09-13T15:44:14;2.10;;;1.52;;
18046;SDS011;9148;51.454;13.862;2022-09-13T15:46:50;1.83;;;0.88;;
18046;SDS011;9148;51.454;13.862;2022-09-13T15:49:19;1.80;;;1.13;;
18046;SDS011;9148;51.454;13.862;2022-09-13T15:51:56;2.47;;;1.40;;
18046;SDS011;9148;51.454;13.862;2022-09-13T15:54:33;1.55;;;1.15;;
18046;SDS011;9148;51.454;13.862;2022-09-13T15:57:05;3.20;;;1.48;;
18046;SDS011;9148;51.454;13.862;2022-09-13T15:59:41;1.10;;;0.98;;
18046;SDS011;9148;51.454;13.862;2022-09-13T16:02:26;1.88;;;1.10;;
18046;SDS011;9148;51.454;13.862;2022-09-13T16:04:56;1.23;;;1.13;;
18046;SDS011;9148;51.454;13.862;2022-09-13T16:07:22;1.38;;;0.82;;
18046;SDS011;9148;51.454;13.862;2022-09-13T16:09:50;1.55;;;0.98;;
18046;SDS011;9148;51.454;13.862;2022-09-13T16:12:16;2.78;;;1.70;;
18046;SDS011;9148;51.454;13.862;2022-09-13T16:14:43;1.92;;;1.30;;
18046;SDS011;9148;51.454;13.862;2022-09-13T16:17:10;1.48;;;1.15;;
18046;SDS011;9148;51.454;13.862;2022-09-13T16:19:43;1.08;;;1.00;;
18046;SDS011;9148;51.454;13.862;2022-09-13T16:22:09;1.63;;;1.25;;
18046;SDS011;9148;51.454;13.862;2022-09-13T16:24:34;0.90;;;0.70;;
18046;SDS011;9148;51.454;13.862;2022-09-13T16:27:01;1.27;;;1.23;;
18046;SDS011;9148;51.454;13.862;2022-09-13T16:29:28;1.38;;;1.25;;
18046;SDS011;9148;51.454;13.862;2022-09-13T16:31:54;1.23;;;1.00;;
18046;SDS011;9148;51.454;13.862;2022-09-13T16:34:23;1.38;;;1.25;;
18046;SDS011;9148;51.454;13.862;2022-09-13T16:36:50;1.55;;;1.15;;
18046;SDS011;9148;51.454;13.862;2022-09-13T16:39:15;0.93;;;0.60;;
18046;SDS011;9148;51.454;13.862;2022-09-13T16:41:42;1.38;;;1.05;;
18046;SDS011;9148;51.454;13.862;2022-09-13T16:44:10;1.30;;;1.20;;
18046;SDS011;9148;51.454;13.862;2022-09-13T16:46:38;1.70;;;1.27;;
18046;SDS011;9148;51.454;13.862;2022-09-13T16:49:03;1.38;;;0.82;;
18046;SDS011;9148;51.454;13.862;2022-09-13T16:51:29;2.42;;;1.02;;
18046;SDS011;9148;51.454;13.862;2022-09-13T16:53:55;0.95;;;0.88;;
18046;SDS011;9148;51.454;13.862;2022-09-13T16:56:21;2.55;;;1.48;;
18046;SDS011;9148;51.454;13.862;2022-09-13T16:58:49;1.30;;;1.20;;
18046;SDS011;9148;51.454;13.862;2022-09-13T17:01:17;1.23;;;1.10;;
18046;SDS011;9148;51.454;13.862;2022-09-13T17:03:46;2.78;;;1.40;;
18046;SDS011;9148;51.454;13.862;2022-09-13T17:06:13;1.88;;;1.63;;
18046;SDS011;9148;51.454;13.862;2022-09-13T17:08:41;1.40;;;1.30;;
18046;SDS011;9148;51.454;13.862;2022-09-13T17:11:16;1.45;;;1.23;;
18046;SDS011;9148;51.454;13.862;2022-09-13T17:13:43;2.30;;;1.48;;
18046;SDS011;9148;51.454;13.862;2022-09-13T17:16:18;2.22;;;1.45;;
18046;SDS011;9148;51.454;13.862;2022-09-13T17:18:56;1.30;;;1.20;;
18046;SDS011;9148;51.454;13.862;2022-09-13T17:21:24;1.67;;;1.40;;
18046;SDS011;9148;51.454;13.862;2022-09-13T17:23:50;2.13;;;1.50;;
18046;SDS011;9148;51.454;13.862;2022-09-13T17:26:17;1.75;;;1.02;;
18046;SDS011;9148;51.454;13.862;2022-09-13T17:28:42;2.55;;;1.50;;
18046;SDS011;9148;51.454;13.862;2022-09-13T17:31:08;1.60;;;1.50;;
18046;SDS011;9148;51.454;13.862;2022-09-13T17:33:34;1.42;;;1.30;;
18046;SDS011;9148;51.454;13.862;2022-09-13T17:36:01;1.67;;;1.10;;
18046;SDS011;9148;51.454;13.862;2022-09-13T17:38:35;2.03;;;1.60;;
18046;SDS011;9148;51.454;13.862;2022-09-13T17:41:12;4.30;;;1.83;;
18046;SDS011;9148;51.454;13.862;2022-09-13T17:43:41;1.45;;;1.20;;
18046;SDS011;9148;51.454;13.862;2022-09-13T17:46:09;2.10;;;1.55;;
18046;SDS011;9148;51.454;13.862;2022-09-13T17:48:40;5.97;;;2.03;;
18046;SDS011;9148;51.454;13.862;2022-09-13T17:51:08;2.25;;;2.03;;
18046;SDS011;9148;51.454;13.862;2022-09-13T17:53:39;2.15;;;1.70;;
18046;SDS011;9148;51.454;13.862;2022-09-13T17:56:18;5.05;;;2.28;;
18046;SDS011;9148;51.454;13.862;2022-09-13T17:58:54;1.45;;;1.30;;
18046;SDS011;9148;51.454;13.862;2022-09-13T18:01:28;2.28;;;2.05;;
18046;SDS011;9148;51.454;13.862;2022-09-13T18:03:54;1.65;;;1.27;;
18046;SDS011;9148;51.454;13.862;2022-09-13T18:06:20;1.85;;;1.60;;
18046;SDS011;9148;51.454;13.862;2022-09-13T18:08:46;1.23;;;1.10;;
18046;SDS011;9148;51.454;13.862;2022-09-13T18:11:13;1.95;;;1.65;;
18046;SDS011;9148;51.454;13.862;2022-09-13T18:13:42;1.35;;;1.25;;
18046;SDS011;9148;51.454;13.862;2022-09-13T18:16:10;1.42;;;1.25;;
18046;SDS011;9148;51.454;13.862;2022-09-13T18:18:39;1.70;;;1.60;;
18046;SDS011;9148;51.454;13.862;2022-09-13T18:21:05;2.10;;;1.75;;
18046;SDS011;9148;51.454;13.862;2022-09-13T18:23:34;3.45;;;2.38;;
18046;SDS011;9148;51.454;13.862;2022-09-13T18:26:01;2.22;;;1.50;;
18046;SDS011;9148;51.454;13.862;2022-09-13T18:28:30;1.73;;;1.63;;
18046;SDS011;9148;51.454;13.862;2022-09-13T18:30:58;4.43;;;1.45;;
18046;SDS011;9148;51.454;13.862;2022-09-13T18:33:26;2.15;;;1.67;;
18046;SDS011;9148;51.454;13.862;2022-09-13T18:36:05;1.67;;;1.52;;